sensor_id;sensor_type;location;lat;lon;timestamp;P1;durP1;ratioP1;P2;durP2;ratioP2
21239;SDS011;10778;48.962;9.018;2022-08-19T00:00:06;19.75;;;16.45;;
21239;SDS011;10778;48.962;9.018;2022-08-19T00:02:35;19.10;;;16.20;;
21239;SDS011;10778;48.962;9.018;2022-08-19T00:05:01;18.85;;;16.83;;
21239;SDS011;10778;48.962;9.018;2022-08-19T00:07:29;18.58;;;16.63;;
21239;SDS011;10778;48.962;9.018;2022-08-19T00:09:55;19.25;;;17.00;;
21239;SDS011;10778;48.962;9.018;2022-08-19T00:12:21;18.23;;;16.33;;
21239;SDS011;10778;48.962;9.018;2022-08-19T00:14:47;18.67;;;16.77;;
21239;SDS011;10778;48.962;9.018;2022-08-19T00:17:13;18.13;;;16.23;;
21239;SDS011;10778;48.962;9.018;2022-08-19T00:19:39;19.27;;;17.27;;
21239;SDS011;10778;48.962;9.018;2022-08-19T00:22:06;19.95;;;17.85;;
21239;SDS011;10778;48.962;9.018;2022-08-19T00:24:34;19.13;;;16.95;;
21239;SDS011;10778;48.962;9.018;2022-08-19T00:27:00;19.67;;;17.58;;
21239;SDS011;10778;48.962;9.018;2022-08-19T00:29:27;18.35;;;16.35;;
21239;SDS011;10778;48.962;9.018;2022-08-19T00:31:54;18.33;;;16.38;;
21239;SDS011;10778;48.962;9.018;2022-08-19T00:34:22;18.40;;;16.00;;
21239;SDS011;10778;48.962;9.018;2022-08-19T00:36:48;18.38;;;16.48;;
21239;SDS011;10778;48.962;9.018;2022-08-19T00:39:15;17.77;;;15.90;;
21239;SDS011;10778;48.962;9.018;2022-08-19T00:41:43;18.02;;;16.20;;
21239;SDS011;10778;48.962;9.018;2022-08-19T00:44:12;18.23;;;16.05;;
21239;SDS011;10778;48.962;9.018;2022-08-19T00:46:40;20.98;;;17.13;;
21239;SDS011;10778;48.962;9.018;2022-08-19T00:49:31;19.90;;;17.50;;
21239;SDS011;10778;48.962;9.018;2022-08-19T00:52:08;19.10;;;17.10;;
21239;SDS011;10778;48.962;9.018;2022-08-19T00:54:38;18.55;;;16.45;;
21239;SDS011;10778;48.962;9.018;2022-08-19T00:57:05;19.90;;;16.30;;
21239;SDS011;10778;48.962;9.018;2022-08-19T00:59:35;21.15;;;17.15;;
21239;SDS011;10778;48.962;9.018;2022-08-19T01:02:04;20.80;;;17.27;;
21239;SDS011;10778;48.962;9.018;2022-08-19T01:04:30;19.98;;;17.58;;
21239;SDS011;10778;48.962;9.018;2022-08-19T01:06:56;21.33;;;17.35;;
21239;SDS011;10778;48.962;9.018;2022-08-19T01:09:23;20.17;;;17.63;;
21239;SDS011;10778;48.962;9.018;2022-08-19T01:11:50;20.98;;;16.60;;
21239;SDS011;10778;48.962;9.018;2022-08-19T01:14:17;19.88;;;17.00;;
21239;SDS011;10778;48.962;9.018;2022-08-19T01:16:44;21.90;;;17.40;;
21239;SDS011;10778;48.962;9.018;2022-08-19T01:19:36;21.17;;;18.35;;
21239;SDS011;10778;48.962;9.018;2022-08-19T01:24:49;21.10;;;17.83;;
21239;SDS011;10778;48.962;9.018;2022-08-19T01:27:15;21.13;;;17.23;;
21239;SDS011;10778;48.962;9.018;2022-08-19T01:29:42;21.00;;;17.85;;
21239;SDS011;10778;48.962;9.018;2022-08-19T01:32:11;21.35;;;18.42;;
21239;SDS011;10778;48.962;9.018;2022-08-19T01:34:39;21.98;;;18.70;;
21239;SDS011;10778;48.962;9.018;2022-08-19T01:37:06;21.60;;;19.30;;
21239;SDS011;10778;48.962;9.018;2022-08-19T01:39:37;24.70;;;19.30;;
21239;SDS011;10778;48.962;9.018;2022-08-19T01:42:05;23.20;;;19.70;;
21239;SDS011;10778;48.962;9.018;2022-08-19T01:44:34;24.17;;;18.95;;
21239;SDS011;10778;48.962;9.018;2022-08-19T01:47:02;22.25;;;18.45;;
21239;SDS011;10778;48.962;9.018;2022-08-19T01:49:29;22.23;;;18.60;;
21239;SDS011;10778;48.962;9.018;2022-08-19T01:51:55;22.17;;;19.60;;
21239;SDS011;10778;48.962;9.018;2022-08-19T01:54:23;22.13;;;19.05;;
21239;SDS011;10778;48.962;9.018;2022-08-19T01:56:51;23.48;;;18.65;;
21239;SDS011;10778;48.962;9.018;2022-08-19T01:59:19;24.75;;;20.30;;
21239;SDS011;10778;48.962;9.018;2022-08-19T02:01:48;22.15;;;19.75;;
21239;SDS011;10778;48.962;9.018;2022-08-19T02:04:14;23.67;;;19.45;;
21239;SDS011;10778;48.962;9.018;2022-08-19T02:06:41;25.52;;;19.92;;
21239;SDS011;10778;48.962;9.018;2022-08-19T02:09:07;23.92;;;19.63;;
21239;SDS011;10778;48.962;9.018;2022-08-19T02:11:35;25.10;;;20.13;;
21239;SDS011;10778;48.962;9.018;2022-08-19T02:14:03;26.83;;;21.63;;
21239;SDS011;10778;48.962;9.018;2022-08-19T02:16:31;25.40;;;20.85;;
21239;SDS011;10778;48.962;9.018;2022-08-19T02:18:58;24.08;;;20.33;;
21239;SDS011;10778;48.962;9.018;2022-08-19T02:21:27;24.88;;;21.35;;
21239;SDS011;10778;48.962;9.018;2022-08-19T02:23:54;25.27;;;21.52;;
21239;SDS011;10778;48.962;9.018;2022-08-19T02:26:21;24.90;;;20.25;;
21239;SDS011;10778;48.962;9.018;2022-08-19T02:28:47;25.45;;;21.55;;
21239;SDS011;10778;48.962;9.018;2022-08-19T02:31:15;25.20;;;21.08;;
21239;SDS011;10778;48.962;9.018;2022-08-19T02:33:44;23.67;;;21.13;;
21239;SDS011;10778;48.962;9.018;2022-08-19T02:36:12;23.77;;;20.80;;
21239;SDS011;10778;48.962;9.018;2022-08-19T02:41:17;24.65;;;21.55;;
21239;SDS011;10778;48.962;9.018;2022-08-19T02:43:44;24.02;;;21.45;;
21239;SDS011;10778;48.962;9.018;2022-08-19T02:46:15;24.88;;;21.63;;
21239;SDS011;10778;48.962;9.018;2022-08-19T02:48:47;28.75;;;23.48;;
21239;SDS011;10778;48.962;9.018;2022-08-19T02:51:18;26.40;;;23.52;;
21239;SDS011;10778;48.962;9.018;2022-08-19T02:53:46;28.38;;;24.77;;
21239;SDS011;10778;48.962;9.018;2022-08-19T02:56:13;28.17;;;24.13;;
21239;SDS011;10778;48.962;9.018;2022-08-19T02:58:39;27.92;;;24.65;;
21239;SDS011;10778;48.962;9.018;2022-08-19T03:01:05;28.70;;;24.77;;
21239;SDS011;10778;48.962;9.018;2022-08-19T03:03:31;28.80;;;24.30;;
21239;SDS011;10778;48.962;9.018;2022-08-19T03:06:12;28.25;;;24.65;;
21239;SDS011;10778;48.962;9.018;2022-08-19T03:08:41;29.23;;;24.25;;
21239;SDS011;10778;48.962;9.018;2022-08-19T03:11:19;28.90;;;24.98;;
21239;SDS011;10778;48.962;9.018;2022-08-19T03:13:47;28.83;;;25.73;;
21239;SDS011;10778;48.962;9.018;2022-08-19T03:16:17;30.58;;;26.55;;
21239;SDS011;10778;48.962;9.018;2022-08-19T03:18:44;30.77;;;26.48;;
21239;SDS011;10778;48.962;9.018;2022-08-19T03:21:14;31.27;;;27.15;;
21239;SDS011;10778;48.962;9.018;2022-08-19T03:23:42;31.58;;;26.30;;
21239;SDS011;10778;48.962;9.018;2022-08-19T03:26:08;30.85;;;26.15;;
21239;SDS011;10778;48.962;9.018;2022-08-19T03:28:34;31.60;;;26.27;;
21239;SDS011;10778;48.962;9.018;2022-08-19T03:31:02;29.50;;;26.02;;
21239;SDS011;10778;48.962;9.018;2022-08-19T03:33:30;30.13;;;26.90;;
21239;SDS011;10778;48.962;9.018;2022-08-19T03:38:38;29.80;;;25.98;;
21239;SDS011;10778;48.962;9.018;2022-08-19T03:41:07;30.50;;;27.20;;
21239;SDS011;10778;48.962;9.018;2022-08-19T03:43:36;31.60;;;26.75;;
21239;SDS011;10778;48.962;9.018;2022-08-19T03:46:05;30.75;;;27.45;;
21239;SDS011;10778;48.962;9.018;2022-08-19T03:48:33;33.45;;;28.38;;
21239;SDS011;10778;48.962;9.018;2022-08-19T03:51:00;29.77;;;26.20;;
21239;SDS011;10778;48.962;9.018;2022-08-19T03:53:27;31.23;;;27.83;;
21239;SDS011;10778;48.962;9.018;2022-08-19T03:55:54;32.60;;;27.70;;
21239;SDS011;10778;48.962;9.018;2022-08-19T03:58:22;32.78;;;27.42;;
21239;SDS011;10778;48.962;9.018;2022-08-19T04:00:48;33.65;;;28.65;;
21239;SDS011;10778;48.962;9.018;2022-08-19T04:03:14;31.58;;;28.00;;
21239;SDS011;10778;48.962;9.018;2022-08-19T04:05:41;32.65;;;28.33;;
21239;SDS011;10778;48.962;9.018;2022-08-19T04:08:07;32.67;;;28.50;;
21239;SDS011;10778;48.962;9.018;2022-08-19T04:10:36;34.70;;;28.65;;
21239;SDS011;10778;48.962;9.018;2022-08-19T04:13:04;31.40;;;26.92;;
21239;SDS011;10778;48.962;9.018;2022-08-19T04:15:31;33.20;;;29.60;;
21239;SDS011;10778;48.962;9.018;2022-08-19T04:18:04;32.60;;;28.80;;
21239;SDS011;10778;48.962;9.018;2022-08-19T04:20:38;32.15;;;28.02;;
21239;SDS011;10778;48.962;9.018;2022-08-19T04:23:11;34.38;;;28.42;;
21239;SDS011;10778;48.962;9.018;2022-08-19T04:25:39;31.73;;;28.25;;
21239;SDS011;10778;48.962;9.018;2022-08-19T04:28:07;31.83;;;28.40;;
21239;SDS011;10778;48.962;9.018;2022-08-19T04:30:39;31.73;;;27.58;;
21239;SDS011;10778;48.962;9.018;2022-08-19T04:33:13;31.95;;;28.20;;
21239;SDS011;10778;48.962;9.018;2022-08-19T04:35:43;32.60;;;27.55;;
21239;SDS011;10778;48.962;9.018;2022-08-19T04:38:12;31.48;;;27.58;;
21239;SDS011;10778;48.962;9.018;2022-08-19T04:40:49;30.23;;;27.00;;
21239;SDS011;10778;48.962;9.018;2022-08-19T04:43:36;30.65;;;27.40;;
21239;SDS011;10778;48.962;9.018;2022-08-19T04:46:11;30.55;;;26.98;;
21239;SDS011;10778;48.962;9.018;2022-08-19T04:48:38;31.40;;;27.33;;
21239;SDS011;10778;48.962;9.018;2022-08-19T04:51:07;31.85;;;27.67;;
21239;SDS011;10778;48.962;9.018;2022-08-19T04:53:36;31.08;;;27.20;;
21239;SDS011;10778;48.962;9.018;2022-08-19T04:56:05;30.33;;;27.08;;
21239;SDS011;10778;48.962;9.018;2022-08-19T04:58:40;30.65;;;27.30;;
21239;SDS011;10778;48.962;9.018;2022-08-19T05:01:11;32.25;;;27.50;;
21239;SDS011;10778;48.962;9.018;2022-08-19T05:03:40;30.67;;;27.30;;
21239;SDS011;10778;48.962;9.018;2022-08-19T05:06:07;31.02;;;27.73;;
21239;SDS011;10778;48.962;9.018;2022-08-19T05:08:36;34.15;;;28.23;;
21239;SDS011;10778;48.962;9.018;2022-08-19T05:11:10;31.05;;;27.65;;
21239;SDS011;10778;48.962;9.018;2022-08-19T05:13:44;31.20;;;27.90;;
21239;SDS011;10778;48.962;9.018;2022-08-19T05:16:12;32.50;;;28.17;;
21239;SDS011;10778;48.962;9.018;2022-08-19T05:18:39;33.58;;;27.88;;
21239;SDS011;10778;48.962;9.018;2022-08-19T05:21:25;31.42;;;28.05;;
21239;SDS011;10778;48.962;9.018;2022-08-19T05:24:10;31.00;;;27.67;;
21239;SDS011;10778;48.962;9.018;2022-08-19T05:26:37;33.38;;;28.48;;
21239;SDS011;10778;48.962;9.018;2022-08-19T05:29:05;32.08;;;28.38;;
21239;SDS011;10778;48.962;9.018;2022-08-19T05:31:32;32.67;;;29.02;;
21239;SDS011;10778;48.962;9.018;2022-08-19T05:33:59;32.70;;;28.27;;
21239;SDS011;10778;48.962;9.018;2022-08-19T05:36:26;33.05;;;29.52;;
21239;SDS011;10778;48.962;9.018;2022-08-19T05:38:53;31.25;;;27.27;;
21239;SDS011;10778;48.962;9.018;2022-08-19T05:41:20;31.40;;;28.00;;
21239;SDS011;10778;48.962;9.018;2022-08-19T05:43:52;32.25;;;28.88;;
21239;SDS011;10778;48.962;9.018;2022-08-19T05:46:19;32.22;;;28.23;;
21239;SDS011;10778;48.962;9.018;2022-08-19T05:48:45;31.95;;;27.80;;
21239;SDS011;10778;48.962;9.018;2022-08-19T05:51:12;33.95;;;27.30;;
21239;SDS011;10778;48.962;9.018;2022-08-19T05:53:38;32.08;;;28.58;;
21239;SDS011;10778;48.962;9.018;2022-08-19T05:56:05;31.50;;;27.88;;
21239;SDS011;10778;48.962;9.018;2022-08-19T05:58:32;32.50;;;27.83;;
21239;SDS011;10778;48.962;9.018;2022-08-19T06:00:59;30.30;;;27.08;;
21239;SDS011;10778;48.962;9.018;2022-08-19T06:03:30;31.02;;;27.70;;
21239;SDS011;10778;48.962;9.018;2022-08-19T06:06:00;31.45;;;27.15;;
21239;SDS011;10778;48.962;9.018;2022-08-19T06:08:26;30.17;;;26.92;;
21239;SDS011;10778;48.962;9.018;2022-08-19T06:10:53;30.42;;;27.10;;
21239;SDS011;10778;48.962;9.018;2022-08-19T06:13:20;30.05;;;26.75;;
21239;SDS011;10778;48.962;9.018;2022-08-19T06:15:48;32.72;;;27.13;;
21239;SDS011;10778;48.962;9.018;2022-08-19T06:18:14;30.60;;;26.40;;
21239;SDS011;10778;48.962;9.018;2022-08-19T06:20:41;32.42;;;27.55;;
21239;SDS011;10778;48.962;9.018;2022-08-19T06:23:08;30.25;;;26.17;;
21239;SDS011;10778;48.962;9.018;2022-08-19T06:25:34;30.05;;;26.50;;
21239;SDS011;10778;48.962;9.018;2022-08-19T06:28:01;30.77;;;26.58;;
21239;SDS011;10778;48.962;9.018;2022-08-19T06:30:27;29.30;;;25.77;;
21239;SDS011;10778;48.962;9.018;2022-08-19T06:32:53;29.70;;;26.50;;
21239;SDS011;10778;48.962;9.018;2022-08-19T06:35:19;31.55;;;26.67;;
21239;SDS011;10778;48.962;9.018;2022-08-19T06:37:45;29.17;;;26.13;;
21239;SDS011;10778;48.962;9.018;2022-08-19T06:40:12;29.42;;;26.25;;
21239;SDS011;10778;48.962;9.018;2022-08-19T06:42:38;32.25;;;26.27;;
21239;SDS011;10778;48.962;9.018;2022-08-19T06:45:05;30.77;;;25.88;;
21239;SDS011;10778;48.962;9.018;2022-08-19T06:47:33;28.25;;;25.27;;
21239;SDS011;10778;48.962;9.018;2022-08-19T06:50:00;28.90;;;25.90;;
21239;SDS011;10778;48.962;9.018;2022-08-19T06:52:34;30.42;;;25.95;;
21239;SDS011;10778;48.962;9.018;2022-08-19T06:55:01;28.13;;;24.95;;
21239;SDS011;10778;48.962;9.018;2022-08-19T06:57:27;28.30;;;25.30;;
21239;SDS011;10778;48.962;9.018;2022-08-19T06:59:58;29.50;;;24.80;;
21239;SDS011;10778;48.962;9.018;2022-08-19T07:02:25;27.15;;;24.25;;
21239;SDS011;10778;48.962;9.018;2022-08-19T07:04:52;27.08;;;24.27;;
21239;SDS011;10778;48.962;9.018;2022-08-19T07:07:19;27.98;;;24.13;;
21239;SDS011;10778;48.962;9.018;2022-08-19T07:09:46;25.75;;;23.05;;
21239;SDS011;10778;48.962;9.018;2022-08-19T07:12:13;28.63;;;24.23;;
21239;SDS011;10778;48.962;9.018;2022-08-19T07:14:40;27.58;;;24.08;;
21239;SDS011;10778;48.962;9.018;2022-08-19T07:17:08;26.05;;;23.00;;
21239;SDS011;10778;48.962;9.018;2022-08-19T07:19:36;27.65;;;23.80;;
21239;SDS011;10778;48.962;9.018;2022-08-19T07:22:04;27.50;;;22.90;;
21239;SDS011;10778;48.962;9.018;2022-08-19T07:24:32;26.65;;;21.88;;
21239;SDS011;10778;48.962;9.018;2022-08-19T07:26:59;25.48;;;22.25;;
21239;SDS011;10778;48.962;9.018;2022-08-19T07:29:29;28.92;;;22.58;;
21239;SDS011;10778;48.962;9.018;2022-08-19T07:31:58;28.02;;;22.73;;
21239;SDS011;10778;48.962;9.018;2022-08-19T07:34:26;25.33;;;22.63;;
21239;SDS011;10778;48.962;9.018;2022-08-19T07:36:54;26.23;;;21.90;;
21239;SDS011;10778;48.962;9.018;2022-08-19T07:39:24;25.48;;;21.92;;
21239;SDS011;10778;48.962;9.018;2022-08-19T07:41:53;27.40;;;22.00;;
21239;SDS011;10778;48.962;9.018;2022-08-19T07:44:21;25.52;;;21.60;;
21239;SDS011;10778;48.962;9.018;2022-08-19T07:46:48;22.88;;;20.48;;
21239;SDS011;10778;48.962;9.018;2022-08-19T07:49:16;24.00;;;21.48;;
21239;SDS011;10778;48.962;9.018;2022-08-19T07:51:45;23.50;;;21.00;;
21239;SDS011;10778;48.962;9.018;2022-08-19T07:54:13;23.02;;;20.08;;
21239;SDS011;10778;48.962;9.018;2022-08-19T07:56:39;23.42;;;20.17;;
21239;SDS011;10778;48.962;9.018;2022-08-19T07:59:05;22.83;;;20.40;;
21239;SDS011;10778;48.962;9.018;2022-08-19T08:01:31;23.35;;;20.90;;
21239;SDS011;10778;48.962;9.018;2022-08-19T08:03:57;21.80;;;19.45;;
21239;SDS011;10778;48.962;9.018;2022-08-19T08:06:42;22.38;;;19.80;;
21239;SDS011;10778;48.962;9.018;2022-08-19T08:09:32;22.27;;;19.85;;
21239;SDS011;10778;48.962;9.018;2022-08-19T08:12:03;23.90;;;20.90;;
21239;SDS011;10778;48.962;9.018;2022-08-19T08:14:33;21.80;;;19.45;;
21239;SDS011;10778;48.962;9.018;2022-08-19T08:17:02;22.85;;;20.45;;
21239;SDS011;10778;48.962;9.018;2022-08-19T08:19:29;21.40;;;19.17;;
21239;SDS011;10778;48.962;9.018;2022-08-19T08:21:56;22.88;;;20.20;;
21239;SDS011;10778;48.962;9.018;2022-08-19T08:24:24;24.20;;;20.42;;
21239;SDS011;10778;48.962;9.018;2022-08-19T08:26:51;23.02;;;19.23;;
21239;SDS011;10778;48.962;9.018;2022-08-19T08:29:17;22.85;;;19.08;;
21239;SDS011;10778;48.962;9.018;2022-08-19T08:31:45;21.05;;;18.67;;
21239;SDS011;10778;48.962;9.018;2022-08-19T08:34:13;22.83;;;18.45;;
21239;SDS011;10778;48.962;9.018;2022-08-19T08:36:40;21.65;;;18.27;;
21239;SDS011;10778;48.962;9.018;2022-08-19T08:39:09;21.17;;;17.75;;
21239;SDS011;10778;48.962;9.018;2022-08-19T08:41:46;19.23;;;17.20;;
21239;SDS011;10778;48.962;9.018;2022-08-19T08:44:39;20.58;;;17.92;;
21239;SDS011;10778;48.962;9.018;2022-08-19T08:47:09;22.77;;;17.33;;
21239;SDS011;10778;48.962;9.018;2022-08-19T08:52:18;22.00;;;18.02;;
21239;SDS011;10778;48.962;9.018;2022-08-19T08:54:48;21.45;;;17.45;;
21239;SDS011;10778;48.962;9.018;2022-08-19T09:00:10;21.95;;;16.88;;
21239;SDS011;10778;48.962;9.018;2022-08-19T09:02:42;19.08;;;16.02;;
21239;SDS011;10778;48.962;9.018;2022-08-19T09:05:09;19.33;;;16.42;;
21239;SDS011;10778;48.962;9.018;2022-08-19T09:10:28;18.05;;;16.15;;
21239;SDS011;10778;48.962;9.018;2022-08-19T09:15:47;18.15;;;15.82;;
21239;SDS011;10778;48.962;9.018;2022-08-19T09:18:18;17.70;;;14.77;;
21239;SDS011;10778;48.962;9.018;2022-08-19T09:20:44;20.17;;;15.82;;
21239;SDS011;10778;48.962;9.018;2022-08-19T09:23:12;18.33;;;15.75;;
21239;SDS011;10778;48.962;9.018;2022-08-19T09:25:38;19.15;;;15.55;;
21239;SDS011;10778;48.962;9.018;2022-08-19T09:28:05;17.33;;;15.20;;
21239;SDS011;10778;48.962;9.018;2022-08-19T09:30:33;16.17;;;14.23;;
21239;SDS011;10778;48.962;9.018;2022-08-19T09:33:04;18.27;;;14.40;;
21239;SDS011;10778;48.962;9.018;2022-08-19T09:35:32;16.75;;;14.23;;
21239;SDS011;10778;48.962;9.018;2022-08-19T09:37:59;18.35;;;14.77;;
21239;SDS011;10778;48.962;9.018;2022-08-19T09:40:26;17.52;;;14.77;;
21239;SDS011;10778;48.962;9.018;2022-08-19T09:42:54;17.80;;;14.75;;
21239;SDS011;10778;48.962;9.018;2022-08-19T09:45:21;16.58;;;13.88;;
21239;SDS011;10778;48.962;9.018;2022-08-19T09:47:51;16.20;;;13.60;;
21239;SDS011;10778;48.962;9.018;2022-08-19T09:50:18;16.23;;;13.60;;
21239;SDS011;10778;48.962;9.018;2022-08-19T09:52:44;20.30;;;13.63;;
21239;SDS011;10778;48.962;9.018;2022-08-19T09:55:11;18.73;;;14.48;;
21239;SDS011;10778;48.962;9.018;2022-08-19T09:57:41;15.32;;;13.48;;
21239;SDS011;10778;48.962;9.018;2022-08-19T10:00:08;15.60;;;13.07;;
21239;SDS011;10778;48.962;9.018;2022-08-19T10:02:35;17.90;;;13.40;;
21239;SDS011;10778;48.962;9.018;2022-08-19T10:05:01;13.85;;;12.18;;
21239;SDS011;10778;48.962;9.018;2022-08-19T10:07:46;18.48;;;12.65;;
21239;SDS011;10778;48.962;9.018;2022-08-19T10:10:12;16.50;;;13.18;;
21239;SDS011;10778;48.962;9.018;2022-08-19T10:12:38;16.45;;;11.95;;
21239;SDS011;10778;48.962;9.018;2022-08-19T10:15:05;21.67;;;16.80;;
21239;SDS011;10778;48.962;9.018;2022-08-19T10:17:32;14.05;;;11.18;;
21239;SDS011;10778;48.962;9.018;2022-08-19T10:20:01;12.02;;;10.75;;
21239;SDS011;10778;48.962;9.018;2022-08-19T10:22:29;12.95;;;11.57;;
21239;SDS011;10778;48.962;9.018;2022-08-19T10:24:56;11.95;;;9.73;;
21239;SDS011;10778;48.962;9.018;2022-08-19T10:27:22;11.38;;;10.18;;
21239;SDS011;10778;48.962;9.018;2022-08-19T10:29:48;12.02;;;10.82;;
21239;SDS011;10778;48.962;9.018;2022-08-19T10:32:14;14.60;;;10.70;;
21239;SDS011;10778;48.962;9.018;2022-08-19T10:34:40;14.60;;;11.40;;
21239;SDS011;10778;48.962;9.018;2022-08-19T10:37:06;14.93;;;12.00;;
21239;SDS011;10778;48.962;9.018;2022-08-19T10:39:33;13.68;;;11.38;;
21239;SDS011;10778;48.962;9.018;2022-08-19T10:42:04;11.88;;;9.55;;
21239;SDS011;10778;48.962;9.018;2022-08-19T10:44:31;12.43;;;10.18;;
21239;SDS011;10778;48.962;9.018;2022-08-19T10:46:58;10.90;;;9.80;;
21239;SDS011;10778;48.962;9.018;2022-08-19T10:49:24;11.02;;;9.82;;
21239;SDS011;10778;48.962;9.018;2022-08-19T10:51:50;12.77;;;10.10;;
21239;SDS011;10778;48.962;9.018;2022-08-19T10:54:35;13.20;;;10.32;;
21239;SDS011;10778;48.962;9.018;2022-08-19T10:57:20;12.43;;;10.27;;
21239;SDS011;10778;48.962;9.018;2022-08-19T10:59:52;13.60;;;10.25;;
21239;SDS011;10778;48.962;9.018;2022-08-19T11:02:18;12.18;;;9.90;;
21239;SDS011;10778;48.962;9.018;2022-08-19T11:04:44;12.20;;;9.88;;
21239;SDS011;10778;48.962;9.018;2022-08-19T11:07:10;13.07;;;10.77;;
21239;SDS011;10778;48.962;9.018;2022-08-19T11:09:38;12.55;;;9.70;;
21239;SDS011;10778;48.962;9.018;2022-08-19T11:12:07;11.00;;;9.38;;
21239;SDS011;10778;48.962;9.018;2022-08-19T11:14:35;13.32;;;9.63;;
21239;SDS011;10778;48.962;9.018;2022-08-19T11:17:02;14.60;;;10.10;;
21239;SDS011;10778;48.962;9.018;2022-08-19T11:19:30;11.02;;;9.50;;
21239;SDS011;10778;48.962;9.018;2022-08-19T11:21:56;9.68;;;8.68;;
21239;SDS011;10778;48.962;9.018;2022-08-19T11:24:25;9.95;;;9.05;;
21239;SDS011;10778;48.962;9.018;2022-08-19T11:26:53;10.45;;;8.50;;
21239;SDS011;10778;48.962;9.018;2022-08-19T11:29:24;9.30;;;8.00;;
21239;SDS011;10778;48.962;9.018;2022-08-19T11:31:51;10.35;;;7.80;;
21239;SDS011;10778;48.962;9.018;2022-08-19T11:34:18;8.90;;;8.00;;
21239;SDS011;10778;48.962;9.018;2022-08-19T11:36:51;8.68;;;7.72;;
21239;SDS011;10778;48.962;9.018;2022-08-19T11:39:18;10.43;;;8.25;;
21239;SDS011;10778;48.962;9.018;2022-08-19T11:41:46;8.77;;;7.72;;
21239;SDS011;10778;48.962;9.018;2022-08-19T11:44:12;8.43;;;7.00;;
21239;SDS011;10778;48.962;9.018;2022-08-19T11:46:40;7.18;;;6.47;;
21239;SDS011;10778;48.962;9.018;2022-08-19T11:49:11;8.98;;;7.60;;
21239;SDS011;10778;48.962;9.018;2022-08-19T11:51:39;8.35;;;7.15;;
21239;SDS011;10778;48.962;9.018;2022-08-19T11:54:08;8.68;;;7.70;;
21239;SDS011;10778;48.962;9.018;2022-08-19T11:56:36;7.45;;;6.70;;
21239;SDS011;10778;48.962;9.018;2022-08-19T11:59:03;7.45;;;6.35;;
21239;SDS011;10778;48.962;9.018;2022-08-19T12:01:30;8.05;;;6.60;;
21239;SDS011;10778;48.962;9.018;2022-08-19T12:03:57;7.43;;;6.60;;
21239;SDS011;10778;48.962;9.018;2022-08-19T12:06:25;8.52;;;6.80;;
21239;SDS011;10778;48.962;9.018;2022-08-19T12:09:03;7.88;;;7.07;;
21239;SDS011;10778;48.962;9.018;2022-08-19T12:11:31;7.10;;;6.13;;
21239;SDS011;10778;48.962;9.018;2022-08-19T12:13:57;7.85;;;6.30;;
21239;SDS011;10778;48.962;9.018;2022-08-19T12:16:25;7.40;;;6.18;;
21239;SDS011;10778;48.962;9.018;2022-08-19T12:18:53;5.68;;;5.05;;
21239;SDS011;10778;48.962;9.018;2022-08-19T12:21:22;8.77;;;5.40;;
21239;SDS011;10778;48.962;9.018;2022-08-19T12:23:54;6.30;;;5.00;;
21239;SDS011;10778;48.962;9.018;2022-08-19T12:26:21;8.27;;;5.68;;
21239;SDS011;10778;48.962;9.018;2022-08-19T12:28:47;6.50;;;5.90;;
21239;SDS011;10778;48.962;9.018;2022-08-19T12:31:14;8.23;;;5.63;;
21239;SDS011;10778;48.962;9.018;2022-08-19T12:33:41;6.80;;;5.47;;
21239;SDS011;10778;48.962;9.018;2022-08-19T12:36:08;6.05;;;5.20;;
21239;SDS011;10778;48.962;9.018;2022-08-19T12:38:36;5.55;;;4.85;;
21239;SDS011;10778;48.962;9.018;2022-08-19T12:41:03;5.90;;;5.30;;
21239;SDS011;10778;48.962;9.018;2022-08-19T12:43:35;5.68;;;5.10;;
21239;SDS011;10778;48.962;9.018;2022-08-19T12:46:03;8.45;;;5.55;;
21239;SDS011;10778;48.962;9.018;2022-08-19T12:48:32;6.75;;;5.53;;
21239;SDS011;10778;48.962;9.018;2022-08-19T12:50:59;7.28;;;5.75;;
21239;SDS011;10778;48.962;9.018;2022-08-19T12:53:25;5.78;;;5.20;;
21239;SDS011;10778;48.962;9.018;2022-08-19T12:55:55;8.20;;;5.65;;
21239;SDS011;10778;48.962;9.018;2022-08-19T12:58:22;6.90;;;6.20;;
21239;SDS011;10778;48.962;9.018;2022-08-19T13:00:49;7.50;;;6.63;;
21239;SDS011;10778;48.962;9.018;2022-08-19T13:03:15;7.93;;;6.55;;
21239;SDS011;10778;48.962;9.018;2022-08-19T13:05:41;7.25;;;6.55;;
21239;SDS011;10778;48.962;9.018;2022-08-19T13:08:07;7.82;;;6.70;;
21239;SDS011;10778;48.962;9.018;2022-08-19T13:10:34;8.77;;;6.47;;
21239;SDS011;10778;48.962;9.018;2022-08-19T13:13:02;9.00;;;6.78;;
21239;SDS011;10778;48.962;9.018;2022-08-19T13:15:32;7.57;;;6.75;;
21239;SDS011;10778;48.962;9.018;2022-08-19T13:18:00;8.40;;;7.60;;
21239;SDS011;10778;48.962;9.018;2022-08-19T13:20:26;7.78;;;6.95;;
21239;SDS011;10778;48.962;9.018;2022-08-19T13:22:53;9.63;;;7.22;;
21239;SDS011;10778;48.962;9.018;2022-08-19T13:25:20;9.18;;;7.22;;
21239;SDS011;10778;48.962;9.018;2022-08-19T13:27:47;9.00;;;7.38;;
21239;SDS011;10778;48.962;9.018;2022-08-19T13:30:15;8.18;;;7.38;;
21239;SDS011;10778;48.962;9.018;2022-08-19T13:33:01;10.23;;;7.60;;
21239;SDS011;10778;48.962;9.018;2022-08-19T13:35:40;7.80;;;7.10;;
21239;SDS011;10778;48.962;9.018;2022-08-19T13:38:09;8.88;;;8.07;;
21239;SDS011;10778;48.962;9.018;2022-08-19T13:40:36;9.00;;;7.80;;
21239;SDS011;10778;48.962;9.018;2022-08-19T13:43:03;8.25;;;7.43;;
21239;SDS011;10778;48.962;9.018;2022-08-19T13:45:30;9.98;;;7.53;;
21239;SDS011;10778;48.962;9.018;2022-08-19T13:48:01;9.35;;;7.38;;
21239;SDS011;10778;48.962;9.018;2022-08-19T13:50:35;9.57;;;7.38;;
21239;SDS011;10778;48.962;9.018;2022-08-19T13:53:07;8.45;;;7.63;;
21239;SDS011;10778;48.962;9.018;2022-08-19T13:55:34;8.10;;;7.20;;
21239;SDS011;10778;48.962;9.018;2022-08-19T13:58:02;8.05;;;7.05;;
21239;SDS011;10778;48.962;9.018;2022-08-19T14:00:30;7.10;;;6.50;;
21239;SDS011;10778;48.962;9.018;2022-08-19T14:02:58;7.25;;;6.55;;
21239;SDS011;10778;48.962;9.018;2022-08-19T14:05:26;7.50;;;6.50;;
21239;SDS011;10778;48.962;9.018;2022-08-19T14:07:53;6.90;;;6.20;;
21239;SDS011;10778;48.962;9.018;2022-08-19T14:10:19;6.70;;;6.10;;
21239;SDS011;10778;48.962;9.018;2022-08-19T14:12:45;6.53;;;5.93;;
21239;SDS011;10778;48.962;9.018;2022-08-19T14:15:13;6.60;;;5.93;;
21239;SDS011;10778;48.962;9.018;2022-08-19T14:17:41;8.68;;;6.30;;
21239;SDS011;10778;48.962;9.018;2022-08-19T14:20:09;6.45;;;5.80;;
21239;SDS011;10778;48.962;9.018;2022-08-19T14:22:38;7.13;;;6.07;;
21239;SDS011;10778;48.962;9.018;2022-08-19T14:25:07;6.57;;;5.97;;
21239;SDS011;10778;48.962;9.018;2022-08-19T14:27:35;6.57;;;5.82;;
21239;SDS011;10778;48.962;9.018;2022-08-19T14:30:03;6.82;;;5.75;;
21239;SDS011;10778;48.962;9.018;2022-08-19T14:32:32;6.35;;;5.75;;
21239;SDS011;10778;48.962;9.018;2022-08-19T14:35:00;6.63;;;5.78;;
21239;SDS011;10778;48.962;9.018;2022-08-19T14:37:26;6.35;;;5.75;;
21239;SDS011;10778;48.962;9.018;2022-08-19T14:39:52;6.38;;;5.78;;
21239;SDS011;10778;48.962;9.018;2022-08-19T14:42:18;6.13;;;5.40;;
21239;SDS011;10778;48.962;9.018;2022-08-19T14:44:44;5.60;;;5.10;;
21239;SDS011;10778;48.962;9.018;2022-08-19T14:47:10;6.20;;;5.28;;
21239;SDS011;10778;48.962;9.018;2022-08-19T14:49:36;5.70;;;5.20;;
21239;SDS011;10778;48.962;9.018;2022-08-19T14:52:03;5.47;;;5.07;;
21239;SDS011;10778;48.962;9.018;2022-08-19T14:54:29;6.00;;;4.80;;